Terminal Aerodrome Forecast
Issued by NWS

Home | Current Version | Previous Version | Text Only | Print | Product List | Glossary On
Versions: 1 2 3 4 5 6 7 8 9 10 11 12 13 14 15 16 17 18
374
FTUS41 KPBZ 290001 AAA
TAFLBE
TAF AMD
KLBE 290001Z 2900/2924 13010G18KT P6SM BKN025 WS020/14045KT
     FM290400 12012G20KT 6SM -RA OVC015
     FM291400 09012G25KT 5SM -RA OVC015=

USA.gov is the U.S. government's official web portal to all federal, state and local government web resources and services.